Time;durP1;ratioP1;P1;durP2;ratioP2;P2;SDS_P1;SDS_P2;PMS_P1;PMS_P2;Temp;Humidity;BMP_temperature;BMP_pressure;BME280_temperature;BME280_humidity;BME280_pressure;Samples;Min_cycle;Max_cycle;Signal;HPM_P1;HPM_P2
2022/01/23 00:01:26;;;;;;;26.13;14.40;;;;;;;;;;5052608;28;20028;-66
2022/01/23 00:03:51;;;;;;;24.92;13.52;;;;;;;;;;5052983;28;20029;-67
2022/01/23 00:06:17;;;;;;;22.67;12.65;;;;;;;;;;5052521;28;20021;-65
2022/01/23 00:08:42;;;;;;;26.23;13.88;;;;;;;;;;5052518;28;20444;-66
2022/01/23 00:11:08;;;;;;;24.38;12.52;;;;;;;;;;5052424;28;20420;-65
2022/01/23 00:17:16;;;;;;;20.75;12.57;;;;;;;;;;5052591;28;20030;-65
2022/01/23 00:19:06;;;;;;;28.15;12.38;;;;;;;;;;5052393;28;20044;-66
2022/01/23 00:21:34;;;;;;;21.95;11.70;;;;;;;;;;5052321;28;20059;-65
2022/01/23 00:31:53;;;;;;;23.73;13.82;;;;;;;;;;5052233;28;20032;-66
2022/01/23 00:34:19;;;;;;;26.08;14.77;;;;;;;;;;5052367;28;20021;-65
2022/01/23 00:36:45;;;;;;;27.92;15.63;;;;;;;;;;5051889;28;20491;-65
2022/01/23 00:39:10;;;;;;;26.80;15.07;;;;;;;;;;5051760;28;20167;-65
2022/01/23 00:41:35;;;;;;;29.75;16.25;;;;;;;;;;5051966;28;20033;-66
2022/01/23 00:44:01;;;;;;;28.88;15.77;;;;;;;;;;5051705;28;20025;-65
2022/01/23 00:46:33;;;;;;;32.08;15.75;;;;;;;;;;5051707;28;20381;-66
2022/01/23 00:51:26;;;;;;;30.60;15.88;;;;;;;;;;5052070;28;20040;-67
2022/01/23 00:53:52;;;;;;;29.80;15.20;;;;;;;;;;5051811;28;20108;-66
2022/01/23 00:56:18;;;;;;;25.67;14.55;;;;;;;;;;5051323;28;20495;-66
2022/01/23 00:58:44;;;;;;;28.02;14.45;;;;;;;;;;5051470;28;20143;-66
2022/01/23 01:01:10;;;;;;;29.40;14.05;;;;;;;;;;5051305;28;20082;-66
2022/01/23 01:03:36;;;;;;;29.70;14.23;;;;;;;;;;5051578;28;20086;-66
2022/01/23 01:06:01;;;;;;;23.42;13.80;;;;;;;;;;5051429;28;20492;-66
2022/01/23 01:08:27;;;;;;;27.33;13.98;;;;;;;;;;5051717;28;20040;-66
2022/01/23 01:13:22;;;;;;;22.27;12.60;;;;;;;;;;5051219;28;20037;-66
2022/01/23 01:32:13;;;;;;;22.23;11.35;;;;;;;;;;5050795;28;20392;-66
2022/01/23 01:34:45;;;;;;;22.98;11.07;;;;;;;;;;5051003;28;20100;-67
2022/01/23 01:37:12;;;;;;;20.13;9.80;;;;;;;;;;5050596;28;20052;-66
2022/01/23 01:39:37;;;;;;;18.23;9.55;;;;;;;;;;5050558;28;20171;-66
2022/01/23 01:42:03;;;;;;;20.45;10.35;;;;;;;;;;5050850;28;20103;-66
2022/01/23 01:44:30;;;;;;;19.35;10.27;;;;;;;;;;5051107;28;20112;-66
2022/01/23 01:46:56;;;;;;;19.15;9.80;;;;;;;;;;5050442;28;20109;-65
2022/01/23 01:49:30;;;;;;;16.20;9.05;;;;;;;;;;5050541;28;20108;-65
2022/01/23 01:51:58;;;;;;;15.98;8.82;;;;;;;;;;5050908;28;20633;-65
2022/01/23 01:54:26;;;;;;;17.10;8.40;;;;;;;;;;5050442;28;20263;-66
2022/01/23 01:57:04;;;;;;;17.50;8.48;;;;;;;;;;5050249;28;20020;-65
2022/01/23 02:10:24;;;;;;;14.95;7.47;;;;;;;;;;5050242;28;20178;-67
2022/01/23 02:51:02;;;;;;;9.25;4.22;;;;;;;;;;5050146;28;20048;-66
2022/01/23 02:56:06;;;;;;;8.82;4.10;;;;;;;;;;5049713;28;20439;-66
2022/01/23 02:58:47;;;;;;;9.88;4.80;;;;;;;;;;5049327;28;20029;-66
2022/01/23 03:01:18;;;;;;;8.20;4.50;;;;;;;;;;5049541;28;20104;-66
2022/01/23 03:03:46;;;;;;;8.48;4.15;;;;;;;;;;5050102;28;20021;-65
2022/01/23 03:06:34;;;;;;;8.45;4.60;;;;;;;;;;5049788;28;20033;-66
2022/01/23 03:09:51;;;;;;;8.93;4.57;;;;;;;;;;5049773;28;20461;-66
2022/01/23 03:30:13;;;;;;;8.48;4.15;;;;;;;;;;5053271;28;20037;-65
2022/01/23 03:32:43;;;;;;;9.20;4.45;;;;;;;;;;5053649;28;20036;-66
2022/01/23 03:35:09;;;;;;;9.90;4.47;;;;;;;;;;5053213;28;20029;-66
2022/01/23 03:37:34;;;;;;;12.23;4.40;;;;;;;;;;5052869;28;20305;-67
2022/01/23 03:40:00;;;;;;;9.65;4.50;;;;;;;;;;5053193;28;20116;-66
2022/01/23 03:42:27;;;;;;;8.90;4.07;;;;;;;;;;5053102;28;20397;-66
2022/01/23 03:45:57;;;;;;;8.00;4.10;;;;;;;;;;5053052;28;20470;-66
2022/01/23 03:47:39;;;;;;;8.07;3.92;;;;;;;;;;5051766;28;20040;-66
2022/01/23 03:50:08;;;;;;;7.50;4.00;;;;;;;;;;5052614;28;20021;-65
2022/01/23 03:52:34;;;;;;;7.80;4.20;;;;;;;;;;5052753;28;20033;-64
2022/01/23 03:55:00;;;;;;;9.07;4.40;;;;;;;;;;5053151;28;20111;-64
2022/01/23 03:57:25;;;;;;;11.13;4.60;;;;;;;;;;5052586;28;20025;-66
2022/01/23 03:59:51;;;;;;;7.18;4.10;;;;;;;;;;5052549;28;20485;-65
2022/01/23 04:02:16;;;;;;;7.70;3.90;;;;;;;;;;5052559;28;20104;-66
2022/01/23 04:04:42;;;;;;;8.43;4.00;;;;;;;;;;5052560;28;20480;-66
2022/01/23 04:07:13;;;;;;;11.63;3.70;;;;;;;;;;5052245;28;20021;-66
2022/01/23 04:09:40;;;;;;;8.63;3.80;;;;;;;;;;5052650;28;20462;-65
2022/01/23 04:12:08;;;;;;;7.13;3.80;;;;;;;;;;5052588;28;20033;-66
2022/01/23 04:14:35;;;;;;;7.55;3.88;;;;;;;;;;5052753;28;20469;-65
2022/01/23 04:47:29;;;;;;;5.97;3.15;;;;;;;;;;5052271;28;20063;-66
2022/01/23 05:00:14;;;;;;;7.85;3.83;;;;;;;;;;5051428;28;20359;-67
2022/01/23 05:05:27;;;;;;;6.55;3.42;;;;;;;;;;5051581;28;20143;-66
2022/01/23 05:07:52;;;;;;;7.50;3.65;;;;;;;;;;5051476;28;20440;-66
2022/01/23 05:10:18;;;;;;;8.25;3.38;;;;;;;;;;5051498;28;20029;-65
2022/01/23 05:12:44;;;;;;;6.90;3.22;;;;;;;;;;5051283;28;20362;-66
2022/01/23 05:15:11;;;;;;;6.28;3.22;;;;;;;;;;5050942;28;20369;-66
2022/01/23 05:17:37;;;;;;;6.53;3.38;;;;;;;;;;5051276;28;20095;-66
2022/01/23 05:20:04;;;;;;;8.23;3.50;;;;;;;;;;5051417;28;20427;-66
2022/01/23 05:22:44;;;;;;;6.50;3.28;;;;;;;;;;5051190;28;20043;-65
2022/01/23 05:25:19;;;;;;;6.73;3.47;;;;;;;;;;5051237;28;20092;-66
2022/01/23 05:27:46;;;;;;;7.30;3.60;;;;;;;;;;5051116;28;20029;-66
2022/01/23 05:30:11;;;;;;;9.15;3.47;;;;;;;;;;5050890;28;20025;-65
2022/01/23 05:32:40;;;;;;;6.85;3.40;;;;;;;;;;5050840;28;20024;-66
2022/01/23 05:35:08;;;;;;;5.80;3.40;;;;;;;;;;5051340;28;20499;-66
2022/01/23 05:37:33;;;;;;;8.05;3.40;;;;;;;;;;5050628;28;20021;-66
2022/01/23 05:39:59;;;;;;;6.82;3.42;;;;;;;;;;5050971;28;20027;-65
2022/01/23 05:42:25;;;;;;;6.32;3.38;;;;;;;;;;5050595;28;20047;-66
2022/01/23 05:44:50;;;;;;;6.88;3.53;;;;;;;;;;5050661;28;20021;-66
2022/01/23 05:47:16;;;;;;;7.53;3.22;;;;;;;;;;5050533;28;20076;-65
2022/01/23 05:49:42;;;;;;;7.00;3.65;;;;;;;;;;5050595;28;20021;-65
2022/01/23 05:52:08;;;;;;;7.85;3.80;;;;;;;;;;5050912;28;20105;-66
2022/01/23 05:54:34;;;;;;;6.45;3.40;;;;;;;;;;5050655;28;20111;-65
2022/01/23 05:56:59;;;;;;;7.88;3.60;;;;;;;;;;5050615;28;20111;-65
2022/01/23 05:59:25;;;;;;;7.40;3.58;;;;;;;;;;5050300;28;20029;-65
2022/01/23 06:01:51;;;;;;;7.50;3.70;;;;;;;;;;5050376;28;20033;-64
2022/01/23 06:04:19;;;;;;;7.68;3.88;;;;;;;;;;5050557;28;20489;-65
2022/01/23 06:06:46;;;;;;;8.75;3.78;;;;;;;;;;5050378;28;20039;-66
2022/01/23 06:09:11;;;;;;;7.55;3.90;;;;;;;;;;5050360;28;20454;-66
2022/01/23 06:11:37;;;;;;;6.25;3.20;;;;;;;;;;5050299;28;20032;-66
2022/01/23 06:14:03;;;;;;;7.95;4.00;;;;;;;;;;5050216;28;20075;-66
2022/01/23 06:16:28;;;;;;;9.45;3.92;;;;;;;;;;5050202;28;20024;-66
2022/01/23 06:18:54;;;;;;;7.85;3.65;;;;;;;;;;5050123;28;20029;-65
2022/01/23 06:21:20;;;;;;;10.15;3.78;;;;;;;;;;5050476;28;20036;-65
2022/01/23 06:23:48;;;;;;;9.68;3.78;;;;;;;;;;5049931;28;20032;-65
2022/01/23 06:26:16;;;;;;;9.45;3.70;;;;;;;;;;5049969;28;20047;-65
2022/01/23 06:28:45;;;;;;;8.18;4.00;;;;;;;;;;5050168;28;20036;-65
2022/01/23 06:31:10;;;;;;;8.63;3.97;;;;;;;;;;5050205;28;20028;-67
2022/01/23 06:33:36;;;;;;;6.30;3.78;;;;;;;;;;5050081;28;20210;-66
2022/01/23 06:36:03;;;;;;;8.02;3.83;;;;;;;;;;5049774;28;20104;-65
2022/01/23 06:38:29;;;;;;;7.55;3.97;;;;;;;;;;5049575;28;20076;-66
2022/01/23 06:40:54;;;;;;;10.50;4.45;;;;;;;;;;5049925;28;20048;-66
2022/01/23 06:43:20;;;;;;;9.02;4.22;;;;;;;;;;5049816;28;20029;-66
2022/01/23 06:45:45;;;;;;;8.40;4.45;;;;;;;;;;5049861;28;20024;-65
2022/01/23 06:48:11;;;;;;;6.97;4.03;;;;;;;;;;5050032;28;20037;-66
2022/01/23 06:50:36;;;;;;;9.38;4.35;;;;;;;;;;5050026;28;20451;-66
2022/01/23 06:53:02;;;;;;;6.97;4.22;;;;;;;;;;5049806;28;20032;-65
2022/01/23 06:55:27;;;;;;;7.45;4.15;;;;;;;;;;5052781;28;20032;-66
2022/01/23 06:57:52;;;;;;;8.75;4.32;;;;;;;;;;5053632;28;20025;-66
2022/01/23 07:00:18;;;;;;;8.48;4.53;;;;;;;;;;5053706;28;20067;-64
2022/01/23 07:02:43;;;;;;;10.70;4.85;;;;;;;;;;5053821;28;20082;-65
2022/01/23 07:05:09;;;;;;;7.15;4.57;;;;;;;;;;5053990;28;20025;-64
2022/01/23 07:07:34;;;;;;;11.80;5.00;;;;;;;;;;5053532;28;20465;-66
2022/01/23 07:10:00;;;;;;;11.77;5.45;;;;;;;;;;5052391;28;20013;-65
2022/01/23 07:12:25;;;;;;;12.38;5.40;;;;;;;;;;5053645;28;20055;-66
2022/01/23 07:14:51;;;;;;;10.73;5.35;;;;;;;;;;5053405;28;20055;-65
2022/01/23 07:17:16;;;;;;;12.07;5.45;;;;;;;;;;5053519;28;20021;-65
2022/01/23 07:19:41;;;;;;;9.93;5.70;;;;;;;;;;5053530;28;20028;-66
2022/01/23 07:22:07;;;;;;;12.38;6.40;;;;;;;;;;5053590;28;20024;-66
2022/01/23 07:24:32;;;;;;;10.60;5.80;;;;;;;;;;5053676;28;20021;-65
2022/01/23 07:27:11;;;;;;;12.88;6.13;;;;;;;;;;5053235;28;20024;-66
2022/01/23 07:29:36;;;;;;;14.85;6.32;;;;;;;;;;5051834;28;20072;-65
2022/01/23 07:32:07;;;;;;;9.50;5.75;;;;;;;;;;5053379;28;20025;-64
2022/01/23 07:34:33;;;;;;;11.60;6.30;;;;;;;;;;5053164;28;20116;-65
2022/01/23 07:36:59;;;;;;;11.50;6.50;;;;;;;;;;5053069;28;20112;-66
2022/01/23 07:39:24;;;;;;;12.07;6.65;;;;;;;;;;5053051;28;20045;-65
2022/01/23 07:41:50;;;;;;;12.02;6.60;;;;;;;;;;5053288;28;20028;-66
2022/01/23 07:44:15;;;;;;;11.75;6.50;;;;;;;;;;5053037;28;20048;-66
2022/01/23 07:46:41;;;;;;;10.10;6.10;;;;;;;;;;5052858;28;20820;-65
2022/01/23 07:49:06;;;;;;;11.43;6.30;;;;;;;;;;5053277;28;20021;-66
2022/01/23 07:51:32;;;;;;;17.80;8.32;;;;;;;;;;5052909;28;20067;-66
2022/01/23 07:53:57;;;;;;;25.52;11.15;;;;;;;;;;5053246;28;20029;-66
2022/01/23 07:56:23;;;;;;;16.00;7.13;;;;;;;;;;5052857;28;20100;-66
2022/01/23 07:58:48;;;;;;;13.98;7.03;;;;;;;;;;5052591;28;20120;-66
2022/01/23 08:01:14;;;;;;;18.77;9.45;;;;;;;;;;5052599;28;20025;-67
2022/01/23 08:03:39;;;;;;;17.30;9.73;;;;;;;;;;5052910;28;20017;-66
2022/01/23 08:06:05;;;;;;;18.35;10.20;;;;;;;;;;5052349;28;20479;-65
2022/01/23 08:08:31;;;;;;;16.92;9.30;;;;;;;;;;5052945;28;20036;-66
2022/01/23 08:10:56;;;;;;;17.95;9.23;;;;;;;;;;5052991;28;20083;-64
2022/01/23 08:13:22;;;;;;;20.35;9.23;;;;;;;;;;5052611;28;20017;-64
2022/01/23 08:15:47;;;;;;;15.60;8.90;;;;;;;;;;5052278;28;20050;-66
2022/01/23 08:18:15;;;;;;;15.95;8.80;;;;;;;;;;5052223;28;20021;-67
2022/01/23 08:20:41;;;;;;;14.70;8.35;;;;;;;;;;5052298;28;20626;-65
2022/01/23 08:23:06;;;;;;;15.93;8.48;;;;;;;;;;5052693;28;20152;-67
2022/01/23 08:25:33;;;;;;;14.38;8.70;;;;;;;;;;5052236;28;20435;-66
2022/01/23 08:27:59;;;;;;;13.35;8.20;;;;;;;;;;5052013;28;20279;-65
2022/01/23 08:30:25;;;;;;;14.68;7.30;;;;;;;;;;5052146;28;20645;-66
2022/01/23 08:32:50;;;;;;;13.07;7.65;;;;;;;;;;5052202;28;20029;-66
2022/01/23 08:35:17;;;;;;;12.07;6.25;;;;;;;;;;5051924;28;20021;-65
2022/01/23 08:37:43;;;;;;;12.38;6.25;;;;;;;;;;5051336;28;20037;-65
2022/01/23 08:40:18;;;;;;;10.73;6.00;;;;;;;;;;5051947;28;20028;-66
2022/01/23 08:42:44;;;;;;;8.75;5.65;;;;;;;;;;5051844;28;20480;-65
2022/01/23 08:45:10;;;;;;;9.50;5.43;;;;;;;;;;5051875;28;20036;-65
2022/01/23 08:47:35;;;;;;;10.60;5.90;;;;;;;;;;5052012;28;20021;-66
2022/01/23 08:50:02;;;;;;;12.52;5.85;;;;;;;;;;5051809;28;20029;-67
2022/01/23 08:52:28;;;;;;;10.82;5.90;;;;;;;;;;5051715;28;20116;-66
2022/01/23 08:54:56;;;;;;;8.98;5.50;;;;;;;;;;5051546;28;20104;-66
2022/01/23 08:57:23;;;;;;;11.50;5.97;;;;;;;;;;5051324;28;20048;-65
2022/01/23 08:59:49;;;;;;;13.35;6.25;;;;;;;;;;5051221;28;20377;-66
2022/01/23 09:02:15;;;;;;;9.95;6.07;;;;;;;;;;5052044;28;20021;-65
2022/01/23 09:04:40;;;;;;;11.25;6.75;;;;;;;;;;5051613;28;20057;-66
2022/01/23 09:07:06;;;;;;;10.05;5.82;;;;;;;;;;5051314;28;20056;-67
2022/01/23 09:09:36;;;;;;;14.00;6.60;;;;;;;;;;5051638;28;20067;-66
2022/01/23 09:12:09;;;;;;;12.50;7.38;;;;;;;;;;5051203;28;20032;-67
2022/01/23 09:14:34;;;;;;;16.23;8.48;;;;;;;;;;5071034;28;20043;-67
2022/01/23 09:17:01;;;;;;;12.85;7.10;;;;;;;;;;5061749;28;20032;-66
2022/01/23 09:19:28;;;;;;;9.20;5.20;;;;;;;;;;5065172;28;20130;-66
2022/01/23 09:21:55;;;;;;;8.02;4.30;;;;;;;;;;5068658;28;20029;-66
2022/01/23 09:24:22;;;;;;;7.70;4.25;;;;;;;;;;5061651;28;20060;-66
2022/01/23 09:26:53;;;;;;;8.60;4.60;;;;;;;;;;5070650;28;20116;-66
2022/01/23 09:30:05;;;;;;;;;;;;;;;;;;5070139;28;20025;-66
2022/01/23 09:32:17;;;;;;;6.13;3.50;;;;;;;;;;5067336;28;19912;-66
2022/01/23 09:34:44;;;;;;;9.10;3.67;;;;;;;;;;5070908;28;20016;-66
2022/01/23 09:37:12;;;;;;;5.70;3.50;;;;;;;;;;5070788;28;20059;-67
2022/01/23 09:39:39;;;;;;;8.18;3.60;;;;;;;;;;5070879;28;20089;-67
2022/01/23 09:42:19;;;;;;;6.57;3.05;;;;;;;;;;5070616;28;20094;-66
2022/01/23 09:45:12;;;;;;;7.45;3.00;;;;;;;;;;5070228;28;20400;-66
2022/01/23 09:47:39;;;;;;;6.55;2.88;;;;;;;;;;5068495;28;20045;-66
2022/01/23 09:50:07;;;;;;;4.47;2.25;;;;;;;;;;5070187;28;20028;-66
2022/01/23 09:52:35;;;;;;;7.78;3.05;;;;;;;;;;5070504;28;20028;-65
2022/01/23 09:55:07;;;;;;;5.07;2.95;;;;;;;;;;5070557;28;20475;-66
2022/01/23 09:57:36;;;;;;;9.18;3.17;;;;;;;;;;5060122;28;20055;-65
2022/01/23 10:00:06;;;;;;;7.07;2.83;;;;;;;;;;5048493;28;20037;-65
2022/01/23 10:02:32;;;;;;;7.95;3.20;;;;;;;;;;5049364;28;20063;-66
2022/01/23 10:04:57;;;;;;;9.57;3.10;;;;;;;;;;5050413;28;20025;-65
2022/01/23 10:07:23;;;;;;;8.73;3.38;;;;;;;;;;5049669;28;20029;-66
2022/01/23 10:09:56;;;;;;;7.43;3.88;;;;;;;;;;5050346;28;20033;-65
2022/01/23 10:12:26;;;;;;;8.45;3.80;;;;;;;;;;5049240;28;20032;-65
2022/01/23 10:14:53;;;;;;;10.75;3.67;;;;;;;;;;5048290;28;20100;-65
2022/01/23 10:17:19;;;;;;;7.15;3.78;;;;;;;;;;5048370;28;20028;-65
2022/01/23 10:19:45;;;;;;;9.35;3.97;;;;;;;;;;5048325;28;20037;-65
2022/01/23 10:22:12;;;;;;;11.63;4.18;;;;;;;;;;5048455;28;20067;-65
2022/01/23 10:24:38;;;;;;;9.57;4.38;;;;;;;;;;5048609;28;20025;-65
2022/01/23 10:27:04;;;;;;;12.82;3.80;;;;;;;;;;5048851;28;20029;-66
2022/01/23 10:29:34;;;;;;;7.57;3.53;;;;;;;;;;5049575;28;20057;-66
2022/01/23 10:32:22;;;;;;;8.77;3.70;;;;;;;;;;5050440;28;20446;-65
2022/01/23 10:34:51;;;;;;;5.20;3.30;;;;;;;;;;5050050;28;20033;-64
2022/01/23 10:37:33;;;;;;;9.13;3.60;;;;;;;;;;5049776;28;20033;-65
2022/01/23 10:40:10;;;;;;;10.63;3.90;;;;;;;;;;5049670;28;20064;-65
2022/01/23 10:47:58;;;;;;;7.05;3.42;;;;;;;;;;5049882;28;20036;-65
2022/01/23 10:50:24;;;;;;;7.72;3.40;;;;;;;;;;5049745;28;20033;-66
2022/01/23 10:52:51;;;;;;;7.38;3.35;;;;;;;;;;5049681;28;20477;-65
2022/01/23 10:55:19;;;;;;;7.20;3.63;;;;;;;;;;5049578;28;20033;-65
2022/01/23 10:57:47;;;;;;;7.57;3.10;;;;;;;;;;5049500;28;20094;-65
2022/01/23 11:00:25;;;;;;;7.30;3.22;;;;;;;;;;5049386;28;20025;-65
2022/01/23 11:02:51;;;;;;;12.25;3.35;;;;;;;;;;5049691;28;20152;-66
2022/01/23 11:05:18;;;;;;;7.88;3.10;;;;;;;;;;5050217;28;20045;-65
2022/01/23 11:07:48;;;;;;;8.48;3.60;;;;;;;;;;5049423;28;20033;-65
2022/01/23 11:10:20;;;;;;;7.05;3.13;;;;;;;;;;5050009;28;20454;-65
2022/01/23 11:18:19;;;;;;;7.45;3.17;;;;;;;;;;5049917;28;20074;-65
2022/01/23 11:20:48;;;;;;;12.20;3.20;;;;;;;;;;5049661;28;20107;-66
2022/01/23 11:23:16;;;;;;;9.05;3.15;;;;;;;;;;5049720;28;20136;-66
2022/01/23 11:26:06;;;;;;;4.88;2.70;;;;;;;;;;5049299;28;20045;-65
2022/01/23 11:28:37;;;;;;;5.83;2.77;;;;;;;;;;5048922;28;20198;-65
2022/01/23 11:31:05;;;;;;;9.52;2.45;;;;;;;;;;5049314;28;20070;-64
2022/01/23 11:33:31;;;;;;;9.15;3.00;;;;;;;;;;5049488;28;20036;-65
2022/01/23 11:35:57;;;;;;;8.18;3.83;;;;;;;;;;5049523;28;20025;-65
2022/01/23 11:38:24;;;;;;;11.18;3.40;;;;;;;;;;5048453;28;20248;-63
2022/01/23 11:54:51;;;;;;;6.47;2.47;;;;;;;;;;5072980;28;20479;-64
2022/01/23 11:57:54;;;;;;;6.28;2.85;;;;;;;;;;5054385;28;20033;-65
2022/01/23 12:00:26;;;;;;;6.53;2.65;;;;;;;;;;5052642;28;20037;-65
2022/01/23 12:03:15;;;;;;;5.88;3.05;;;;;;;;;;5052790;28;20025;-66
2022/01/23 12:05:46;;;;;;;7.82;3.25;;;;;;;;;;5052543;28;20104;-66
2022/01/23 12:08:34;;;;;;;7.95;2.72;;;;;;;;;;5052659;28;20159;-65
2022/01/23 12:11:53;;;;;;;8.32;2.72;;;;;;;;;;5052772;28;20036;-68
2022/01/23 12:17:05;;;;;;;5.85;2.80;;;;;;;;;;5072415;28;20025;-65
2022/01/23 12:19:34;;;;;;;9.13;2.90;;;;;;;;;;5072524;28;20039;-65
2022/01/23 12:22:32;;;;;;;7.45;3.13;;;;;;;;;;5072269;28;20030;-64
2022/01/23 12:25:05;;;;;;;8.55;3.20;;;;;;;;;;5072533;28;20081;-63
2022/01/23 12:27:31;;;;;;;6.25;2.88;;;;;;;;;;5072299;28;20099;-71
2022/01/23 12:30:23;;;;;;;6.13;2.72;;;;;;;;;;5070917;28;20042;-64
2022/01/23 12:33:12;;;;;;;5.43;2.63;;;;;;;;;;5070958;28;20047;-64
2022/01/23 12:35:39;;;;;;;5.20;2.60;;;;;;;;;;5072145;28;20028;-64
2022/01/23 12:38:06;;;;;;;4.68;2.50;;;;;;;;;;5070233;28;20044;-64
2022/01/23 12:40:39;;;;;;;7.68;2.55;;;;;;;;;;5071658;28;20017;-64
2022/01/23 12:43:06;;;;;;;6.45;2.70;;;;;;;;;;5071937;28;20032;-64
2022/01/23 12:45:55;;;;;;;6.70;2.80;;;;;;;;;;5071798;28;20090;-64
2022/01/23 12:48:28;;;;;;;4.97;2.63;;;;;;;;;;5071580;28;20056;-64
2022/01/23 12:51:02;;;;;;;5.85;2.60;;;;;;;;;;5071679;28;20012;-65
2022/01/23 12:53:45;;;;;;;5.88;2.70;;;;;;;;;;5071428;28;20099;-64
2022/01/23 12:56:14;;;;;;;8.02;2.90;;;;;;;;;;5071908;28;20384;-64
2022/01/23 12:58:42;;;;;;;9.18;2.90;;;;;;;;;;5071412;28;20117;-64
2022/01/23 13:01:17;;;;;;;6.28;2.83;;;;;;;;;;5071651;28;20020;-64
2022/01/23 13:03:53;;;;;;;6.15;2.63;;;;;;;;;;5071569;28;20404;-63
2022/01/23 13:06:31;;;;;;;6.15;2.90;;;;;;;;;;5071552;28;20028;-64
2022/01/23 13:12:17;;;;;;;5.63;2.50;;;;;;;;;;5092320;28;20450;-63
2022/01/23 13:17:43;;;;;;;3.70;2.40;;;;;;;;;;5072158;28;20037;-63
2022/01/23 13:31:43;;;;;;;6.65;2.70;;;;;;;;;;5071033;28;20054;-62
2022/01/23 13:34:38;;;;;;;5.90;2.40;;;;;;;;;;5070940;28;20485;-63
2022/01/23 13:37:07;;;;;;;5.78;2.33;;;;;;;;;;5070752;28;20104;-64
2022/01/23 13:39:42;;;;;;;6.13;2.55;;;;;;;;;;5070375;28;20055;-63
2022/01/23 13:42:29;;;;;;;7.43;2.75;;;;;;;;;;5070597;28;20492;-64
2022/01/23 13:59:17;;;;;;;5.00;2.30;;;;;;;;;;5070244;28;20553;-65
2022/01/23 14:01:53;;;;;;;5.68;2.65;;;;;;;;;;5070224;28;20397;-67
2022/01/23 14:04:22;;;;;;;7.22;2.88;;;;;;;;;;5069484;28;20754;-67
2022/01/23 14:06:48;;;;;;;5.05;2.15;;;;;;;;;;5070311;28;20020;-64
2022/01/23 14:09:14;;;;;;;6.88;2.50;;;;;;;;;;5068059;28;20040;-65
2022/01/23 14:11:41;;;;;;;5.93;2.22;;;;;;;;;;5070009;28;20021;-65
2022/01/23 14:14:20;;;;;;;5.43;2.35;;;;;;;;;;5071488;28;20090;-65
2022/01/23 14:16:48;;;;;;;4.38;2.30;;;;;;;;;;5069919;28;20024;-65
2022/01/23 14:19:27;;;;;;;6.80;2.45;;;;;;;;;;5080061;28;20025;-65
2022/01/23 14:21:59;;;;;;;5.82;2.47;;;;;;;;;;5069987;28;20020;-66
2022/01/23 14:24:32;;;;;;;10.32;3.05;;;;;;;;;;5070199;28;20032;-65
2022/01/23 14:27:07;;;;;;;6.05;2.63;;;;;;;;;;5070023;28;20054;-65
2022/01/23 14:29:54;;;;;;;6.03;2.65;;;;;;;;;;5069585;28;20035;-65
2022/01/23 14:32:34;;;;;;;6.93;2.70;;;;;;;;;;5069793;28;20036;-64
2022/01/23 14:35:07;;;;;;;9.75;2.80;;;;;;;;;;5069802;28;20032;-66
2022/01/23 14:37:33;;;;;;;7.93;2.90;;;;;;;;;;5069600;28;20035;-65
2022/01/23 14:40:17;;;;;;;7.07;2.53;;;;;;;;;;5069551;28;20032;-64
2022/01/23 14:42:59;;;;;;;6.30;2.90;;;;;;;;;;5070462;28;20024;-67
2022/01/23 14:45:25;;;;;;;5.50;2.60;;;;;;;;;;5061147;28;20543;-67
2022/01/23 14:47:51;;;;;;;6.40;2.50;;;;;;;;;;5064688;28;20025;-67
2022/01/23 14:50:19;;;;;;;7.32;2.58;;;;;;;;;;5049670;28;20025;-69
2022/01/23 14:52:47;;;;;;;7.93;3.40;;;;;;;;;;5049690;28;20040;-66
2022/01/23 14:55:12;;;;;;;9.52;2.72;;;;;;;;;;5049726;28;20033;-67
2022/01/23 14:57:40;;;;;;;7.57;2.72;;;;;;;;;;5049569;28;20098;-66
2022/01/23 15:00:07;;;;;;;7.55;2.65;;;;;;;;;;5049378;28;20128;-65
2022/01/23 15:02:33;;;;;;;5.57;2.60;;;;;;;;;;5049621;28;20601;-65
2022/01/23 15:05:03;;;;;;;7.07;2.90;;;;;;;;;;5049783;28;20021;-68
2022/01/23 15:07:37;;;;;;;5.32;2.70;;;;;;;;;;5049785;28;20059;-68
2022/01/23 15:10:04;;;;;;;4.82;2.50;;;;;;;;;;5049291;28;20053;-66
2022/01/23 15:12:29;;;;;;;6.57;2.60;;;;;;;;;;5049604;28;20075;-64
2022/01/23 15:14:55;;;;;;;8.43;2.72;;;;;;;;;;5050767;28;20029;-64
2022/01/23 15:17:20;;;;;;;6.10;2.63;;;;;;;;;;5073021;28;20025;-67
2022/01/23 15:19:46;;;;;;;6.22;2.55;;;;;;;;;;5072519;28;20028;-67
2022/01/23 15:22:12;;;;;;;6.90;3.00;;;;;;;;;;5072297;28;20024;-66
2022/01/23 15:24:38;;;;;;;6.88;2.58;;;;;;;;;;5070460;28;20492;-66
2022/01/23 15:27:04;;;;;;;24.35;5.25;;;;;;;;;;5070682;28;20108;-66
2022/01/23 15:29:30;;;;;;;7.80;3.70;;;;;;;;;;5069823;28;20024;-66
2022/01/23 15:31:56;;;;;;;8.55;3.13;;;;;;;;;;5070906;28;20349;-67
2022/01/23 15:34:21;;;;;;;6.47;3.15;;;;;;;;;;5070090;28;20395;-66
2022/01/23 15:36:47;;;;;;;8.73;3.80;;;;;;;;;;5069673;28;20029;-67
2022/01/23 15:39:13;;;;;;;10.25;4.47;;;;;;;;;;5069843;28;20061;-67
2022/01/23 15:41:39;;;;;;;9.30;4.18;;;;;;;;;;5072909;28;20093;-66
2022/01/23 15:44:05;;;;;;;10.00;4.70;;;;;;;;;;5072487;28;20028;-67
2022/01/23 15:46:31;;;;;;;8.88;4.55;;;;;;;;;;5073288;28;20028;-67
2022/01/23 15:48:56;;;;;;;9.65;4.68;;;;;;;;;;5072943;28;20035;-71
2022/01/23 15:51:21;;;;;;;7.72;4.15;;;;;;;;;;5073148;28;20028;-70
2022/01/23 15:53:47;;;;;;;11.82;4.40;;;;;;;;;;5071127;28;20025;-65
2022/01/23 15:56:12;;;;;;;16.35;4.80;;;;;;;;;;5078644;28;20136;-65
2022/01/23 15:58:38;;;;;;;7.78;4.40;;;;;;;;;;5072790;28;20075;-67
2022/01/23 16:01:03;;;;;;;10.60;5.72;;;;;;;;;;5072206;28;20247;-65
2022/01/23 16:03:29;;;;;;;9.13;5.20;;;;;;;;;;5072195;28;20028;-67
2022/01/23 16:05:56;;;;;;;10.02;5.97;;;;;;;;;;5072618;28;20101;-67
2022/01/23 16:08:22;;;;;;;11.50;5.03;;;;;;;;;;5072575;28;20028;-65
2022/01/23 16:10:47;;;;;;;12.25;4.35;;;;;;;;;;5072064;28;20025;-66
2022/01/23 16:13:13;;;;;;;13.88;4.53;;;;;;;;;;5057713;28;20021;-66
2022/01/23 16:15:40;;;;;;;7.32;3.70;;;;;;;;;;5050731;28;20028;-67
2022/01/23 16:18:05;;;;;;;8.85;4.03;;;;;;;;;;5066595;28;20579;-68
2022/01/23 16:20:30;;;;;;;9.35;4.10;;;;;;;;;;5072164;28;20107;-66
2022/01/23 16:22:56;;;;;;;6.72;3.60;;;;;;;;;;5075247;28;20032;-66
2022/01/23 16:25:22;;;;;;;8.65;3.83;;;;;;;;;;5071789;28;20047;-65
2022/01/23 16:27:49;;;;;;;8.45;3.80;;;;;;;;;;5063398;28;20078;-67
2022/01/23 16:30:15;;;;;;;6.40;3.30;;;;;;;;;;5059398;28;20059;-66
2022/01/23 16:32:42;;;;;;;7.00;3.30;;;;;;;;;;5072015;28;20093;-69
2022/01/23 16:35:09;;;;;;;6.10;3.40;;;;;;;;;;5071859;28;20412;-67
2022/01/23 16:37:34;;;;;;;6.65;3.45;;;;;;;;;;5071931;28;20029;-67
2022/01/23 16:40:00;;;;;;;6.03;3.22;;;;;;;;;;5074263;28;20048;-67
2022/01/23 16:42:26;;;;;;;6.07;3.38;;;;;;;;;;5071914;28;20024;-68
2022/01/23 16:44:51;;;;;;;5.93;3.30;;;;;;;;;;5071733;28;20456;-65
2022/01/23 16:47:17;;;;;;;7.50;3.63;;;;;;;;;;5063682;28;20024;-65
2022/01/23 16:49:42;;;;;;;7.40;4.00;;;;;;;;;;5051471;28;20056;-67
2022/01/23 16:52:11;;;;;;;7.05;3.92;;;;;;;;;;5050327;28;20500;-66
2022/01/23 16:54:37;;;;;;;6.65;3.67;;;;;;;;;;5051554;28;20123;-65
2022/01/23 16:57:02;;;;;;;6.95;3.72;;;;;;;;;;5079338;28;20104;-67
2022/01/23 16:59:29;;;;;;;6.95;3.70;;;;;;;;;;5071102;28;20044;-65
2022/01/23 17:01:54;;;;;;;6.68;3.90;;;;;;;;;;5071352;28;20101;-67
2022/01/23 17:04:20;;;;;;;6.93;3.78;;;;;;;;;;5071652;28;20051;-67
2022/01/23 17:06:45;;;;;;;7.13;3.85;;;;;;;;;;5071255;28;20105;-67
2022/01/23 17:09:11;;;;;;;7.68;4.30;;;;;;;;;;5071221;28;20024;-66
2022/01/23 17:11:37;;;;;;;9.93;5.20;;;;;;;;;;5070958;28;20026;-65
2022/01/23 17:14:03;;;;;;;8.90;5.82;;;;;;;;;;5071171;28;20027;-66
2022/01/23 17:16:28;;;;;;;9.65;6.70;;;;;;;;;;5071078;28;20013;-66
2022/01/23 17:18:54;;;;;;;9.30;6.47;;;;;;;;;;5054020;28;20021;-65
2022/01/23 17:21:20;;;;;;;11.32;6.32;;;;;;;;;;5054107;28;20070;-64
2022/01/23 17:23:46;;;;;;;9.73;6.32;;;;;;;;;;5076754;28;20495;-65
2022/01/23 17:26:11;;;;;;;14.32;7.53;;;;;;;;;;5070681;28;20024;-66
2022/01/23 17:28:37;;;;;;;19.83;10.10;;;;;;;;;;5069044;28;20086;-66
2022/01/23 17:31:02;;;;;;;18.35;9.82;;;;;;;;;;5069176;28;20017;-64
2022/01/23 17:33:28;;;;;;;17.92;10.13;;;;;;;;;;5069175;28;20074;-66
2022/01/23 17:35:54;;;;;;;21.95;12.30;;;;;;;;;;5069368;28;20495;-65
2022/01/23 17:38:19;;;;;;;23.75;12.05;;;;;;;;;;5068584;28;20056;-64
2022/01/23 17:40:45;;;;;;;23.27;12.05;;;;;;;;;;5068243;28;20056;-65
2022/01/23 17:43:12;;;;;;;23.58;13.88;;;;;;;;;;5069636;28;20064;-65
2022/01/23 17:45:49;;;;;;;23.63;12.75;;;;;;;;;;5070592;28;20522;-65
2022/01/23 17:50:55;;;;;;;;;;;;;;;;;;5071060;28;20107;-65
2022/01/23 17:53:20;;;;;;;19.13;11.60;;;;;;;;;;5070756;28;20015;-65
2022/01/23 17:55:46;;;;;;;20.58;11.57;;;;;;;;;;5070398;28;20103;-66
2022/01/23 17:58:11;;;;;;;22.85;13.05;;;;;;;;;;5070472;28;20662;-65
2022/01/23 18:00:38;;;;;;;18.98;11.98;;;;;;;;;;5070194;28;20530;-65
2022/01/23 18:03:05;;;;;;;20.83;12.60;;;;;;;;;;5070262;28;20522;-66
2022/01/23 18:05:33;;;;;;;37.83;22.02;;;;;;;;;;5070450;28;20043;-64
2022/01/23 18:08:00;;;;;;;33.40;20.17;;;;;;;;;;5070271;28;20016;-65
2022/01/23 18:10:26;;;;;;;34.40;20.52;;;;;;;;;;5069950;28;20107;-67
2022/01/23 18:12:52;;;;;;;33.50;22.45;;;;;;;;;;5070264;28;20121;-65
2022/01/23 18:15:18;;;;;;;36.05;21.25;;;;;;;;;;5070033;28;20516;-65